Tiempo atmosférico en la estación meteorológica de Aguilar De Campoo, Palencia (910 m.)



Fecha
DESCASC
Temp. máxima en grados centígrados (hora)
DESCASC
Temp. mínima en grados centígrados (hora)
DESCASC
Temp. media en grados centígrados
DESCASC
Racha de viento máxima en m/sg (hora)
DESCASC
Velocidad máxima media en intervalos de 10 minutos(hora)
DESCASC
Precipitaciones diarias en mm
DESCASC
Precipitaciones de 00:00 a 06:00 en mm
DESCASC
Precipitaciones de 06:00 a 12:00 en mm
DESCASC
Precipitaciones de 12:00 a 18:00 en mm
DESCASC
Precipitaciones de 18:00 a 24:00 en mm
DESCASC
16-04-2019 16.6 (17:50) 4.9 (05:20) 10.8 7.5 (16:50) 3.89 (15:10) 0 0 0 0 0
15-04-2019 19.6 (14:00) 7.2 (23:50) 13.4 16.11 (15:00) 8.06 (17:00) 1.6 0 0 1.6 0
14-04-2019 20.6 (17:20) 5.6 (00:00) 13.1 6.94 (20:10) 3.06 (19:20) 0 0 0 0 0
13-04-2019 18.7 (17:30) -2.2 (-00:0) 8.3 9.72 (17:00) 5 (15:30) 0 0 0 0 0
12-04-2019 14.8 (18:10) -1.6 (-00:0) 6.6 7.22 (18:20) 3.89 (19:40) 0 0 0 0 0
11-04-2019 11.6 (16:20) -1.5 (-00:0) 5.1 9.72 (17:50) 5 (18:00) 0 0 0 0 0
10-04-2019 9.8 (16:10) -0.1 (00:00) 4.9 8.61 (17:10) 4.17 (17:20) 0 0 0 0 0
09-04-2019 10.5 (16:40) 2.2 (00:00) 6.4 10.28 (17:30) 5 (17:50) 2.2 0 0.8 1.4 0
08-04-2019 12.8 (16:40) 3.3 (00:00) 8.1 12.22 (14:30) 5.83 (14:00) 1.8 1.4 0.4 0 0
07-04-2019 11.2 (17:10) -0.9 (-00:0) 5.1 12.22 (19:30) 6.39 (19:30) 1.4 0 0 0 1.4
06-04-2019 7.2 (15:50) -1.2 (-00:0) 3 10.56 (15:20) 5.56 (16:30) 1.8 0 0.4 1.2 0.2
05-04-2019 8.3 (15:40) 0.3 (00:00) 4.3 11.94 (15:00) 5.56 (19:30) 6.2 4.4 1.8 0 0
04-04-2019 9.1 (16:50) -6.7 (-00:0) 1.2 13.61 (15:30) 6.39 (15:00) 1.8 0 0 0 1.8
03-04-2019 8.6 (14:30) -1.2 (23:59) 3.7 9.17 (14:50) 4.17 (21:40) 0.6 0 0 0.6 0
02-04-2019 13.4 (14:50) -0.5 (-00:0) 6.4 8.61 (11:10) 5.28 (11:10) 0 0 0 0 0
01-04-2019 14.9 (16:40) -0.6 (-00:0) 7.1 7.78 (19:00) 4.44 (14:00) 0 0 0 0 0
31-03-2019 16.2 (15:10) -0.5 (-00:0) 7.9 8.89 (17:50) 5 (13:20) 0 0 0 0 0
30-03-2019 16.9 (14:50) -1.6 (-00:0) 7.6 6.67 (18:00) 4.17 (18:00) 0 0 0 0 0
29-03-2019 17.5 (16:10) -2.4 (-00:0) 7.5 8.33 (14:50) 4.72 (14:10) 0 0 0 0 0
28-03-2019 14.4 (16:20) 1.1 (00:00) 7.7 9.72 (16:00) 5.83 (11:00) 0 0 0 0 0
27-03-2019 14.2 (14:50) -2.8 (-00:0) 5.7 11.94 (14:30) 6.94 (14:30) 0 0 0 0 0
26-03-2019 13.2 (15:10) 1.6 (00:00) 7.4 15.28 (15:40) 7.78 (15:50) 0 0 0 0 0
25-03-2019 10.9 (14:50) 1 (00:00) 5.9 12.22 (13:20) 6.39 (04:20) 0 0 0 0 0
24-03-2019 18.3 (14:00) -0.6 (-00:0) 8.8 8.61 (17:20) 5 (16:30) 0 0 0 0 0
23-03-2019 18.9 (16:10) -2.9 (-00:0) 8 9.44 (18:10) 3.33 (15:30) 0 0 0 0 0
22-03-2019 16.4 (16:40) -4.3 (-00:0) 6 6.94 (18:30) 3.89 (21:10) 0 0 0 0 0
21-03-2019 11.6 (16:20) -2.5 (-00:0) 4.6 10.28 (17:30) 5.28 (17:10) 0 0 0 0 0
20-03-2019 9.7 (15:40) 0.6 (00:00) 5.1 10.56 (11:30) 6.67 (11:30) 0 0 0 0 0
19-03-2019 9.8 (15:40) 1.8 (00:00) 5.8 11.11 (14:20) 6.67 (14:20) 0 0 0 0 0

Gráficas

Temp. máximas Temp. mínimas Temp. medias Precipitaciones Rachas de viento máximas Velocidades máximas media en intervalos de 10 minutos

Datos horarios

Fecha y hora oficial Temperatura (ºC) Velocidad del viento (km/h) Dirección del viento Racha (km/h) Dirección de racha Precipitación (mm) Presión (hPa) Tendencia (hPa) Humedad (%)
2019-04-17 23:00:00 11.8 5 Sudoeste 17 Oeste 1.2 -- -- 88
2019-04-17 22:00:00 13.1 8 Oeste 29 Oeste 0.4 -- -- 78
2019-04-17 21:00:00 14.8 17 Noroeste 38 Noroeste 0 -- -- 62
2019-04-17 20:00:00 16.9 14 Oeste 33 Oeste 0 -- -- 49
2019-04-17 19:00:00 17.2 12 Oeste 22 Oeste 0 -- -- 51
2019-04-17 18:00:00 16.2 4 Oeste 15 Noroeste 0 -- -- 56
2019-04-17 17:00:00 15.8 9 Noroeste 30 Noroeste 0 -- -- 55
2019-04-17 16:00:00 16.1 14 Oeste 30 Oeste 0 -- -- 56
2019-04-17 15:00:00 15.7 15 Oeste 40 Oeste 0 -- -- 57
2019-04-17 14:00:00 15.4 18 Noroeste 31 Oeste 0 -- -- 61
2019-04-17 13:00:00 14.4 15 Noroeste 30 Oeste 0 -- -- 64
2019-04-17 12:00:00 13.5 14 Oeste 28 Oeste 0 -- -- 68
2019-04-17 11:00:00 12.1 12 Oeste 24 Oeste 0 -- -- 72
2019-04-17 10:00:00 8.4 0 Calma 4 Sudeste 0 -- -- 87
2019-04-17 09:00:00 5.4 0 Calma 12 Este 0 -- -- 92
2019-04-17 08:00:00 4.6 7 Este 14 Este 0 -- -- 89
2019-04-17 07:00:00 4.5 6 Este 12 Este 0 -- -- 91
2019-04-17 06:00:00 4.6 6 Este 17 Este 0 -- -- 89
2019-04-17 05:00:00 4.9 8 Este 14 Este 0 -- -- 88
2019-04-17 04:00:00 5.4 8 Este 14 Este 0 -- -- 84
2019-04-17 03:00:00 6.4 5 Este 13 Este 0 -- -- 82
2019-04-17 02:00:00 6.7 4 Este 9 Este 0 -- -- 88
2019-04-17 01:00:00 7.2 3 Este 11 Este 0 -- -- 79
2019-04-17 00:00:00 7.1 2 Norte 9 Este 0 -- -- 74
2019-04-16 23:00:00 7.6 0 Calma 8 Sur 0 -- -- 69
2019-04-16 22:00:00 9.5 3 Este 5 Este 0 -- -- 62
2019-04-16 21:00:00 13.1 0 Calma 14 Noroeste 0 -- -- 48
2019-04-16 20:00:00 15.7 9 Oeste 23 Noroeste 0 -- -- 39
2019-04-16 19:00:00 16.2 8 Oeste 24 Noroeste 0 -- -- 41
2019-04-16 18:00:00 16.5 11 Oeste 22 Noroeste 0 -- -- 44
2019-04-16 17:00:00 16.3 13 Oeste 27 Oeste 0 -- -- 46
2019-04-16 16:00:00 15.6 12 Oeste 24 Noroeste 0 -- -- 48
2019-04-16 15:00:00 14.3 10 Noroeste 23 Oeste 0 -- -- 49
2019-04-16 14:00:00 14 9 Noroeste 20 Norte 0 -- -- 53
2019-04-16 13:00:00 12.3 8 Oeste 21 Oeste 0 -- -- 61
2019-04-16 12:00:00 10.7 9 Noroeste 19 Oeste 0 -- -- 69
2019-04-16 11:00:00 9.2 8 Oeste 12 Oeste 0 -- -- 79
2019-04-16 10:00:00 7.4 0 Calma 5 Oeste 0 -- -- 88
2019-04-16 09:00:00 6.3 3 Sudeste 6 Oeste 0 -- -- 92
2019-04-16 08:00:00 5.9 3 Sudoeste 8 Este 0 -- -- 93
2019-04-16 07:00:00 5.8 5 Sudeste 8 Sudeste 0 -- -- 94
2019-04-16 06:00:00 5.3 2 Este 8 Este 0 -- -- 96
2019-04-16 05:00:00 5.2 6 Este 10 Este 0 -- -- 94
2019-04-16 04:00:00 5.1 0 Calma 12 Sur 0 -- -- 92
2019-04-16 03:00:00 6.1 8 Sur 16 Sur 0 -- -- 91
2019-04-16 02:00:00 6.6 8 Sur 22 Sur 0 -- -- 90
2019-04-16 01:00:00 7.1 11 Sur 22 Sudeste 0 -- -- 90
2019-04-16 00:00:00 7.2 16 Sur 30 Sur 0 -- -- 91
2019-04-15 23:00:00 8.1 13 Sur 25 Sur 0 -- -- 91
2019-04-15 22:00:00 8.1 11 Sur 25 Sudeste 0 -- -- 92
2019-04-15 21:00:00 9.3 13 Sur 37 Sudeste 0 -- -- 88
2019-04-15 20:00:00 13.1 9 Nordeste 30 Norte 0 -- -- 70
2019-04-15 19:00:00 15.6 18 Norte 35 Norte 0 -- -- 53
2019-04-15 18:00:00 16.7 22 Norte 44 Norte 0 -- -- 53
2019-04-15 17:00:00 17.3 29 Norte 49 Norte 0.2 -- -- 58
2019-04-15 16:00:00 14 5 Norte 42 Norte 0.2 -- -- 79
2019-04-15 15:00:00 15.2 16 Norte 58 Nordeste 1.2 -- -- 76
2019-04-15 14:00:00 19.6 25 Noroeste 47 Oeste 0 -- -- 58
2019-04-15 13:00:00 18.6 20 Noroeste 40 Noroeste 0 -- -- 63
2019-04-15 12:00:00 16.3 12 Noroeste 26 Noroeste 0 -- -- 69
2019-04-15 11:00:00 14.7 15 Oeste 23 Oeste 0 -- -- 71
2019-04-15 10:00:00 12.7 9 Noroeste 22 Noroeste 0 -- -- 77
2019-04-15 09:00:00 9.7 0 Calma 8 Nordeste 0 -- -- 93
2019-04-15 08:00:00 8.6 2 Este 4 Este 0 -- -- 94
2019-04-15 07:00:00 8.5 0 Calma 4 Norte 0 -- -- 94
2019-04-15 06:00:00 8.7 0 Calma 5 Este 0 -- -- 93
2019-04-15 05:00:00 8.4 0 Calma 5 Norte 0 -- -- 92
2019-04-15 04:00:00 8.3 0 Calma 3 Sudeste 0 -- -- 90
2019-04-15 03:00:00 8.1 0 Calma 6 Este 0 -- -- 91
2019-04-15 02:00:00 8.7 3 Este 5 Nordeste 0 -- -- 88
2019-04-15 01:00:00 9.5 0 Calma 3 Este 0 -- -- 86
2019-04-15 00:00:00 10.7 2 Nordeste 4 Este 0 -- -- 82
2019-04-14 23:00:00 12.1 0 Calma 5 Oeste 0 -- -- 77
2019-04-14 22:00:00 14.2 0 Calma 6 Noroeste 0 -- -- 71
2019-04-14 21:00:00 16.6 5 Noroeste 25 Oeste 0 -- -- 62
2019-04-14 20:00:00 18.1 9 Oeste 18 Oeste 0 -- -- 57
2019-04-14 19:00:00 19.2 10 Noroeste 21 Oeste 0 -- -- 53
2019-04-14 18:00:00 20 9 Oeste 18 Oeste 0 -- -- 51
2019-04-14 17:00:00 20.5 8 Oeste 18 Oeste 0 -- -- 51
2019-04-14 16:00:00 20 8 Noroeste 17 Noroeste 0 -- -- 49
2019-04-14 15:00:00 19.1 5 Nordeste 19 Oeste 0 -- -- 53
2019-04-14 14:00:00 18 7 Norte 22 Noroeste 0 -- -- 56
2019-04-14 13:00:00 17 7 Oeste 17 Noroeste 0 -- -- 56
2019-04-14 12:00:00 15 4 Sur 12 Oeste 0 -- -- 55
2019-04-14 11:00:00 13.5 5 Noroeste 11 Noroeste 0 -- -- 56
2019-04-14 10:00:00 10.5 8 Norte 10 Noroeste 0 -- -- 75
2019-04-14 09:00:00 6.8 0 Calma 12 Este 0 -- -- 87
2019-04-14 08:00:00 5.6 0 Calma 11 Este 0 -- -- 87
2019-04-14 07:00:00 6.6 4 Este 9 Nordeste 0 -- -- 86
2019-04-14 06:00:00 8.1 0 Calma 6 Sudeste 0 -- -- 80
2019-04-14 05:00:00 8 3 Este 7 Este 0 -- -- 78
2019-04-14 04:00:00 8.3 3 Este 8 Este 0 -- -- 76
2019-04-14 03:00:00 8.9 6 Este 9 Este 0 -- -- 72
2019-04-14 02:00:00 9.7 0 Calma 8 Sudeste 0 -- -- 68
2019-04-14 01:00:00 10.4 2 Norte 4 Norte 0 -- -- 65
2019-04-14 00:00:00 10.6 0 Calma 7 Sur 0 -- -- 66
2019-04-13 23:00:00 11.6 3 Sur 19 Sur 0 -- -- 58
2019-04-13 22:00:00 12.3 5 Sur 17 Sudeste 0 -- -- 56
2019-04-13 21:00:00 13.6 13 Sudeste 29 Sudeste 0 -- -- 52
2019-04-13 20:00:00 16.8 4 Noroeste 26 Noroeste 0 -- -- 39
2019-04-13 19:00:00 17.6 11 Norte 26 Oeste 0 -- -- 39
2019-04-13 18:00:00 18.5 16 Norte 33 Noroeste 0 -- -- 39
2019-04-13 17:00:00 18.3 18 Noroeste 35 Norte 0 -- -- 39
2019-04-13 16:00:00 18 14 Noroeste 28 Oeste 0 -- -- 42
2019-04-13 15:00:00 17.5 13 Noroeste 32 Noroeste 0 -- -- 43
2019-04-13 14:00:00 16.8 15 Noroeste 33 Noroeste 0 -- -- 43
2019-04-13 13:00:00 15.6 11 Noroeste 21 Norte 0 -- -- 50
2019-04-13 12:00:00 13.5 7 Sudoeste 13 Oeste 0 -- -- 55
2019-04-13 11:00:00 10.1 4 Sudoeste 8 Sudoeste 0 -- -- 67
2019-04-13 10:00:00 5.6 3 Sudoeste 7 Norte 0 -- -- 82
2019-04-13 09:00:00 -0.3 2 Sudeste 5 Sudeste 0 -- -- 94
2019-04-13 08:00:00 -2.2 0 Calma 10 Este 0 -- -- 95
2019-04-13 07:00:00 -2 2 Este 4 Este 0 -- -- 95
2019-04-13 06:00:00 -1.5 0 Calma 2 Noroeste 0 -- -- 95
2019-04-13 05:00:00 -1 0 Calma 2 Sudeste 0 -- -- 94
2019-04-13 04:00:00 -0.7 0 Calma 4 Sudeste 0 -- -- 93
2019-04-13 03:00:00 0.5 0 Calma 13 Este 0 -- -- 90
2019-04-13 02:00:00 2.1 12 Este 16 Este 0 -- -- 90
2019-04-13 01:00:00 3 3 Nordeste 12 Este 0 -- -- 88
2019-04-13 00:00:00 4 8 Este 12 Este 0 -- -- 87
2019-04-12 23:00:00 5.7 3 Este 9 Sudeste 0 -- -- 81
2019-04-12 22:00:00 7.1 10 Sudeste 16 Sudeste 0 -- -- 78
2019-04-12 21:00:00 9.7 11 Sudeste 21 Sur 0 -- -- 68
2019-04-12 20:00:00 12.4 13 Sur 24 Sur 0 -- -- 54
2019-04-12 19:00:00 14.1 12 Sur 26 Sudeste 0 -- -- 44
2019-04-12 18:00:00 14.7 10 Sudeste 21 Este 0 -- -- 37
2019-04-12 17:00:00 14.6 12 Sudeste 24 Sudeste 0 -- -- 40
2019-04-12 16:00:00 14.5 9 Sur 22 Sur 0 -- -- 44
2019-04-12 15:00:00 13.5 6 Sur 17 Sudeste 0 -- -- 48
2019-04-12 14:00:00 12 5 Sudeste 16 Sur 0 -- -- 47
2019-04-12 13:00:00 10.5 8 Norte 17 Norte 0 -- -- 52
2019-04-12 12:00:00 8.3 5 Sur 11 Sudoeste 0 -- -- 64
2019-04-12 11:00:00 5.2 3 Sudoeste 8 Noroeste 0 -- -- 87
2019-04-12 10:00:00 1.7 4 Norte 9 Nordeste 0 -- -- 100
2019-04-12 09:00:00 -0.9 7 Este 15 Este 0 -- -- 99
2019-04-12 08:00:00 -1 7 Este 11 Este 0 -- -- 97
2019-04-12 07:00:00 -1.4 3 Nordeste 12 Este 0 -- -- 96
2019-04-12 06:00:00 -1.1 10 Este 14 Este 0 -- -- 96
2019-04-12 05:00:00 0.5 2 Este 11 Sudeste 0 -- -- 94
2019-04-12 04:00:00 1.7 5 Sudeste 12 Sudeste 0 -- -- 93
2019-04-12 03:00:00 2.3 3 Sudeste 15 Sur 0 -- -- 93
2019-04-12 02:00:00 3.4 7 Sur 16 Sudeste 0 -- -- 94
2019-04-12 01:00:00 3.2 7 Sudeste 14 Sudeste 0 -- -- 95
2019-04-12 00:00:00 3.9 9 Sur 21 Sur 0 -- -- 94
2019-04-11 23:00:00 4.5 11 Sur 21 Sur 0 -- -- 91
2019-04-11 22:00:00 5.1 12 Sur 23 Sur 0 -- -- 87
2019-04-11 21:00:00 6 11 Sur 22 Sur 0 -- -- 83
2019-04-11 20:00:00 7.4 12 Sur 24 Sur 0 -- -- 78
2019-04-11 19:00:00 8.5 12 Sur 28 Sur 0 -- -- 72
2019-04-11 18:00:00 9.6 18 Sur 35 Sur 0 -- -- 67
2019-04-11 17:00:00 10.2 14 Sur 29 Sudeste 0 -- -- 64
2019-04-11 16:00:00 10.5 9 Sur 26 Sudeste 0 -- -- 61
2019-04-11 15:00:00 10.7 9 Sudoeste 19 Sur 0 -- -- 61
2019-04-11 14:00:00 10.1 9 Sudeste 24 Sur 0 -- -- 59
2019-04-11 13:00:00 9.6 11 Sur 22 Sur 0 -- -- 60
2019-04-11 12:00:00 9.3 6 Sur 14 Sur 0 -- -- 59
2019-04-11 11:00:00 6.9 5 Sudoeste 12 Sur 0 -- -- 74
2019-04-11 10:00:00 5 4 Sur 8 Sur 0 -- -- 84
2019-04-11 09:00:00 1 5 Este 10 Este 0 -- -- 96
2019-04-11 08:00:00 -1.1 0 Calma 12 Este 0 -- -- 97
2019-04-11 07:00:00 -1.5 2 Nordeste 7 Sudeste 0 -- -- 97
2019-04-11 06:00:00 -1.2 2 Sudeste 9 Este 0 -- -- 97
2019-04-11 05:00:00 -0.4 5 Este 12 Este 0 -- -- 95
2019-04-11 04:00:00 0.5 0 Calma 5 Sudeste 0 -- -- 93
2019-04-11 03:00:00 2.1 3 Este 6 Sur 0 -- -- 92
2019-04-11 02:00:00 2.1 0 Calma 5 Noroeste 0 -- -- 92
2019-04-11 01:00:00 2.7 2 Nordeste 5 Norte 0 -- -- 91
2019-04-11 00:00:00 3.2 0 Calma 17 Sudeste 0 -- -- 86
2019-04-10 23:00:00 4.3 11 Sur 18 Sudeste 0 -- -- 84
2019-04-10 22:00:00 4.6 6 Sudeste 19 Sur 0 -- -- 79
2019-04-10 21:00:00 5.9 10 Sudeste 19 Sudeste 0 -- -- 74
2019-04-10 20:00:00 6.7 12 Sur 27 Sur 0 -- -- 75
2019-04-10 19:00:00 8 12 Sudeste 29 Sudeste 0 -- -- 73
2019-04-10 18:00:00 9.2 14 Sudeste 31 Sudeste 0 -- -- 70
2019-04-10 17:00:00 9.3 6 Norte 18 Norte 0 -- -- 71
2019-04-10 16:00:00 9.5 10 Norte 17 Norte 0 -- -- 68
2019-04-10 15:00:00 7.9 6 Este 10 Norte 0 -- -- 75
2019-04-10 14:00:00 7.4 5 Norte 18 Norte 0 -- -- 76
2019-04-10 13:00:00 6.9 8 Norte 21 Norte 0 -- -- 77
2019-04-10 12:00:00 6.5 3 Sur 10 Norte 0 -- -- 80
2019-04-10 11:00:00 6.3 4 Oeste 10 Sudoeste 0 -- -- 81
2019-04-10 10:00:00 4.7 2 Sur 8 Sur 0 -- -- 90
2019-04-10 09:00:00 1.5 3 Este 6 Este 0 -- -- 99
2019-04-10 08:00:00 0.9 2 Norte 9 Este 0 -- -- 98
2019-04-10 07:00:00 1 8 Este 11 Este 0 -- -- 98
2019-04-10 06:00:00 0 0 Calma 5 Este 0 -- -- 97
2019-04-10 05:00:00 0.5 0 Calma 5 Este 0 -- -- 96
2019-04-10 04:00:00 2.2 2 Norte 5 Norte 0 -- -- 96
2019-04-10 03:00:00 2.5 2 Este 12 Este 0 -- -- 98
2019-04-10 02:00:00 1.1 3 Nordeste 9 Este 0 -- -- 96
2019-04-10 01:00:00 1.5 4 Este 10 Este 0 -- -- 96
2019-04-10 00:00:00 2.6 2 Nordeste 14 Este 0 -- -- 94
2019-04-09 23:00:00 3.2 2 Norte 10 Este 0 -- -- 93
2019-04-09 22:00:00 3.8 3 Sudeste 15 Sudeste 0 -- -- 90
2019-04-09 21:00:00 5.2 8 Sudeste 13 Sudeste 0 -- -- 87
2019-04-09 20:00:00 6.2 7 Sudeste 22 Sur 0 -- -- 83
2019-04-09 19:00:00 6.2 13 Sur 27 Sur 0 -- -- 82
2019-04-09 18:00:00 6.6 12 Sudeste 37 Sudeste 0 -- -- 78
2019-04-09 17:00:00 10 6 Sudoeste 24 Norte 0 -- -- 72
2019-04-09 16:00:00 9.2 12 Norte 25 Norte 0 -- -- 73
2019-04-09 15:00:00 9.2 12 Noroeste 25 Noroeste 0 -- -- 73
2019-04-09 14:00:00 7.2 11 Norte 28 Norte 0.8 -- -- 87
2019-04-09 13:00:00 6.3 10 Norte 24 Oeste 0.6 -- -- 89
2019-04-09 12:00:00 6.2 5 Norte 19 Noroeste 0.2 -- -- 91
2019-04-09 11:00:00 5.2 6 Noroeste 17 Norte 0.2 -- -- 93
2019-04-09 10:00:00 4.3 6 Norte 17 Noroeste 0.4 -- -- 92
2019-04-09 09:00:00 4.1 4 Noroeste 12 Noroeste 0 -- -- 94
2019-04-09 08:00:00 3.8 3 Oeste 13 Norte 0 -- -- 92
2019-04-09 07:00:00 3.6 6 Noroeste 19 Noroeste 0 -- -- 90
2019-04-09 06:00:00 3.8 10 Norte 19 Norte 0 -- -- 87
2019-04-09 05:00:00 3.4 8 Norte 15 Norte 0 -- -- 88
2019-04-09 04:00:00 2.5 3 Noroeste 13 Oeste 0 -- -- 90
2019-04-09 03:00:00 2.6 0 Calma 7 Noroeste 0 -- -- 87
2019-04-09 02:00:00 4.6 6 Noroeste 24 Norte 0 -- -- 80
2019-04-09 01:00:00 5.2 15 Norte 24 Noroeste 0 -- -- 78
2019-04-09 00:00:00 5.5 8 Noroeste 21 Norte 0 -- -- 76
2019-04-08 23:00:00 6.6 8 Norte 17 Norte 0 -- -- 68
2019-04-08 22:00:00 7.2 8 Norte 17 Norte 0 -- -- 70
2019-04-08 21:00:00 8.5 5 Nordeste 17 Norte 0 -- -- 64
2019-04-08 20:00:00 10.7 8 Noroeste 24 Oeste 0 -- -- 54
2019-04-08 19:00:00 9.9 10 Norte 40 Norte 0 -- -- 54
2019-04-08 18:00:00 12.4 13 Norte 33 Norte 0 -- -- 47
2019-04-08 17:00:00 11.6 17 Norte 32 Oeste 0 -- -- 48
2019-04-08 16:00:00 12 18 Norte 33 Norte 0 -- -- 45
2019-04-08 15:00:00 12 18 Norte 44 Norte 0 -- -- 47
2019-04-08 14:00:00 11.6 21 Norte 35 Norte 0 -- -- 52
2019-04-08 13:00:00 9.9 9 Norte 19 Norte 0 -- -- 71
2019-04-08 12:00:00 8.3 3 Norte 9 Norte 0 -- -- 83
2019-04-08 11:00:00 6.6 2 Sur 8 Este 0 -- -- 89
2019-04-08 10:00:00 5.9 2 Nordeste 7 Nordeste 0 -- -- 95
2019-04-08 09:00:00 4.9 0 Calma 4 Este 0.2 -- -- 97
2019-04-08 08:00:00 4.6 4 Sur 8 Sur 0 -- -- 97
2019-04-08 07:00:00 4.6 0 Calma 4 Noroeste 0.2 -- -- 97
2019-04-08 06:00:00 4.4 2 Norte 6 Norte 0.2 -- -- 97
2019-04-08 05:00:00 4.2 2 Este 5 Nordeste 0.8 -- -- 96
2019-04-08 04:00:00 4.1 2 Nordeste 6 Norte 0.2 -- -- 96
2019-04-08 03:00:00 3.9 4 Nordeste 12 Norte 0.2 -- -- 95
2019-04-08 02:00:00 3.5 6 Norte 17 Nordeste 0 -- -- 95
2019-04-08 01:00:00 3.3 4 Norte 15 Norte 0 -- -- 94
2019-04-08 00:00:00 3.5 10 Norte 20 Norte 0.6 -- -- 92
2019-04-07 23:00:00 3.9 7 Norte 25 Noroeste 0.4 -- -- 91
2019-04-07 22:00:00 4.6 12 Norte 23 Norte 0.2 -- -- 90
2019-04-07 21:00:00 5.2 11 Noroeste 37 Norte 0.2 -- -- 85
2019-04-07 20:00:00 6.8 15 Norte 44 Noroeste 0 -- -- 77
2019-04-07 19:00:00 9.4 11 Noroeste 34 Noroeste 0 -- -- 51
2019-04-07 18:00:00 10 17 Noroeste 37 Noroeste 0 -- -- 47
2019-04-07 17:00:00 10.7 17 Noroeste 35 Oeste 0 -- -- 50
2019-04-07 16:00:00 10.7 16 Noroeste 33 Noroeste 0 -- -- 49
2019-04-07 15:00:00 10.3 13 Noroeste 27 Oeste 0 -- -- 52
2019-04-07 14:00:00 9.4 17 Oeste 27 Oeste 0 -- -- 61
2019-04-07 13:00:00 8.7 14 Oeste 24 Oeste 0 -- -- 64
2019-04-07 12:00:00 6.2 7 Noroeste 15 Norte 0 -- -- 75
2019-04-07 11:00:00 4.5 3 Sudeste 10 Oeste 0 -- -- 82
2019-04-07 10:00:00 2.1 7 Oeste 15 Noroeste 0 -- -- 91
2019-04-07 09:00:00 0.4 6 Noroeste 13 Noroeste 0 -- -- 95
2019-04-07 08:00:00 -0.7 3 Noroeste 9 Noroeste 0 -- -- 94
2019-04-07 07:00:00 -0.6 3 Este 10 Noroeste 0 -- -- 93
2019-04-07 06:00:00 0.6 5 Noroeste 14 Norte 0 -- -- 88
2019-04-07 05:00:00 2 9 Norte 17 Norte 0 -- -- 85
2019-04-07 04:00:00 2.3 7 Norte 19 Norte 0 -- -- 87
2019-04-07 03:00:00 1.6 2 Noroeste 15 Norte 0 -- -- 95
2019-04-07 02:00:00 0.3 3 Sur 5 Sudoeste 0 -- -- 98
2019-04-07 01:00:00 0.2 4 Este 9 Este 0 -- -- 97
2019-04-07 00:00:00 0.1 2 Este 16 Este 0 -- -- 96
2019-04-06 23:00:00 0.2 3 Este 5 Este 0 -- -- 94
2019-04-06 22:00:00 1.8 0 Calma 14 Sudeste 0.2 -- -- 92
2019-04-06 21:00:00 3.2 3 Sur 13 Sudeste 0 -- -- 90
2019-04-06 20:00:00 4.6 4 Nordeste 15 Noroeste 0 -- -- 82
2019-04-06 19:00:00 4.9 8 Noroeste 26 Norte 0 -- -- 78
2019-04-06 18:00:00 6.2 11 Noroeste 23 Norte 0 -- -- 77
2019-04-06 17:00:00 4.9 8 Norte 36 Norte 0 -- -- 87
2019-04-06 16:00:00 6 16 Norte 38 Norte 0.4 -- -- 77
2019-04-06 15:00:00 5.3 14 Norte 37 Norte 0 -- -- 85
2019-04-06 14:00:00 6 19 Noroeste 35 Oeste 0.2 -- -- 83
2019-04-06 13:00:00 3.2 7 Noroeste 32 Noroeste 0.6 -- -- 90
2019-04-06 12:00:00 3.3 11 Noroeste 34 Noroeste 0.2 -- -- 89
2019-04-06 11:00:00 3.1 13 Norte 25 Norte 0 -- -- 91
2019-04-06 10:00:00 2.3 9 Norte 25 Oeste 0.2 -- -- 93
2019-04-06 09:00:00 1.6 8 Norte 17 Norte 0 -- -- 94
2019-04-06 08:00:00 1.2 7 Norte 18 Oeste 0 -- -- 93
2019-04-06 07:00:00 1.3 8 Noroeste 17 Norte 0 -- -- 91
2019-04-06 06:00:00 1.1 7 Noroeste 15 Noroeste 0 -- -- 91
2019-04-06 05:00:00 0.9 6 Norte 18 Norte 0 -- -- 91
2019-04-06 04:00:00 0.7 3 Noroeste 10 Norte 0 -- -- 94
2019-04-06 03:00:00 0.4 4 Noroeste 15 Oeste 0 -- -- 94
2019-04-06 02:00:00 -1.2 3 Norte 8 Noroeste 0 -- -- 94
2019-04-06 01:00:00 -0.3 0 Calma 5 Sur 0 -- -- 92
2019-04-06 00:00:00 0.3 0 Calma 8 Noroeste 0 -- -- 90
2019-04-05 23:00:00 1.3 3 Sudoeste 7 Noroeste 0 -- -- 86
2019-04-05 22:00:00 1.5 3 Sur 8 Sudoeste 0 -- -- 85
2019-04-05 21:00:00 3.4 0 Calma 9 Este 0 -- -- 74
2019-04-05 20:00:00 5.8 8 Este 32 Norte 0 -- -- 65
2019-04-05 19:00:00 7.5 6 Norte 22 Norte 0 -- -- 59
2019-04-05 18:00:00 7.3 10 Norte 32 Noroeste 0 -- -- 57
2019-04-05 17:00:00 7.8 12 Noroeste 34 Oeste 0 -- -- 56
2019-04-05 16:00:00 8 18 Noroeste 37 Oeste 0 -- -- 56
2019-04-05 15:00:00 7.4 16 Noroeste 43 Noroeste 0 -- -- 57
2019-04-05 14:00:00 7.4 19 Noroeste 35 Noroeste 0 -- -- 63
2019-04-05 13:00:00 7.2 17 Noroeste 34 Noroeste 0 -- -- 69
2019-04-05 12:00:00 5.7 15 Noroeste 40 Oeste 0 -- -- 75
2019-04-05 11:00:00 4.3 9 Noroeste 20 Noroeste 0 -- -- 89
2019-04-05 10:00:00 2.8 3 Norte 17 Oeste 0.4 -- -- 94
2019-04-05 09:00:00 2.8 8 Noroeste 16 Noroeste 1.4 -- -- 95
2019-04-05 08:00:00 2.7 7 Noroeste 19 Noroeste 0 -- -- 96
2019-04-05 07:00:00 2.4 9 Noroeste 26 Oeste 0 -- -- 96
2019-04-05 06:00:00 2.3 13 Oeste 28 Oeste 0.2 -- -- 95
2019-04-05 05:00:00 2.3 10 Noroeste 29 Oeste 1 -- -- 94
2019-04-05 04:00:00 2.3 9 Oeste 20 Oeste 1.4 -- -- 95
2019-04-05 03:00:00 2.2 4 Noroeste 23 Noroeste 1 -- -- 95
2019-04-05 02:00:00 1.9 9 Noroeste 19 Noroeste 0.4 -- -- 95
2019-04-05 01:00:00 1.9 11 Noroeste 26 Oeste 0.4 -- -- 95
2019-04-05 00:00:00 1.8 11 Noroeste 19 Noroeste 0.6 -- -- 94
2019-04-04 23:00:00 1.9 6 Noroeste 20 Noroeste 0.6 -- -- 93
2019-04-04 22:00:00 2.5 8 Noroeste 18 Norte 0.6 -- -- 91
2019-04-04 21:00:00 3.3 9 Norte 39 Noroeste 0 -- -- 87
2019-04-04 20:00:00 5.9 18 Noroeste 41 Oeste 0 -- -- 63
2019-04-04 19:00:00 7.7 18 Noroeste 44 Norte 0 -- -- 47
2019-04-04 18:00:00 8 15 Noroeste 37 Oeste 0 -- -- 45
2019-04-04 17:00:00 8.5 16 Norte 43 Norte 0 -- -- 45
2019-04-04 16:00:00 8.3 18 Noroeste 49 Noroeste 0 -- -- 44
2019-04-04 15:00:00 7.5 23 Norte 41 Noroeste 0 -- -- 47
2019-04-04 14:00:00 7.5 22 Norte 39 Norte 0 -- -- 47
2019-04-04 13:00:00 7 20 Norte 39 Norte 0 -- -- 47
2019-04-04 12:00:00 5.9 13 Norte 23 Noroeste 0 -- -- 52
2019-04-04 11:00:00 3.5 12 Noroeste 20 Norte 0 -- -- 63
2019-04-04 10:00:00 -0.1 6 Norte 14 Norte 0 -- -- 80
2019-04-04 09:00:00 -5.2 0 Calma 15 Este 0 -- -- 92
2019-04-04 08:00:00 -6.2 5 Este 14 Este 0 -- -- 92
2019-04-04 07:00:00 -6.5 4 Sudeste 8 Sudeste 0 -- -- 90
2019-04-04 06:00:00 -5.1 3 Norte 6 Noroeste 0 -- -- 93
2019-04-04 05:00:00 -4.6 9 Este 13 Este 0 -- -- 91
2019-04-04 04:00:00 -3.6 6 Este 13 Oeste 0 -- -- 90
2019-04-04 03:00:00 -3.3 2 Este 7 Sudoeste 0 -- -- 88
2019-04-04 02:00:00 -2.6 2 Nordeste 6 Nordeste 0 -- -- 88
2019-04-04 01:00:00 -2.4 2 Oeste 5 Sur 0 -- -- 87
2019-04-04 00:00:00 -1.2 4 Este 9 Norte 0 -- -- 83
2019-04-03 23:00:00 -0.4 3 Este 8 Nordeste 0 -- -- 77
2019-04-03 22:00:00 0.6 3 Norte 26 Norte 0 -- -- 74
2019-04-03 21:00:00 1.7 6 Nordeste 18 Este 0 -- -- 69
2019-04-03 20:00:00 3.8 5 Norte 22 Norte 0 -- -- 57
2019-04-03 19:00:00 5.7 6 Nordeste 23 Este 0 -- -- 55
2019-04-03 18:00:00 6.8 9 Nordeste 25 Nordeste 0 -- -- 49
2019-04-03 17:00:00 6.9 8 Nordeste 28 Sudeste 0 -- -- 45
2019-04-03 16:00:00 6.8 5 Nordeste 23 Norte 0 -- -- 53
2019-04-03 15:00:00 6.5 8 Nordeste 33 Norte 0 -- -- 60
2019-04-03 14:00:00 5.1 5 Este 21 Norte 0.6 -- -- 69
2019-04-03 13:00:00 7.1 5 Sudoeste 18 Sudeste 0 -- -- 58
2019-04-03 12:00:00 5.8 8 Sudeste 21 Este 0 -- -- 67
2019-04-03 11:00:00 5.6 4 Noroeste 12 Oeste 0 -- -- 76
2019-04-03 10:00:00 4.3 5 Sudoeste 12 Sur 0 -- -- 82
2019-04-03 09:00:00 2.4 6 Sur 12 Sur 0 -- -- 91
2019-04-03 08:00:00 1.9 0 Calma 6 Sudeste 0 -- -- 91
2019-04-03 07:00:00 3.4 4 Este 6 Este 0 -- -- 92
2019-04-03 06:00:00 3.6 3 Este 5 Sudeste 0 -- -- 91
2019-04-03 05:00:00 3.8 3 Sur 13 Sudeste 0 -- -- 90
2019-04-03 04:00:00 4 6 Sudeste 15 Sudeste 0 -- -- 91
2019-04-03 03:00:00 4.4 8 Sur 14 Sur 0 -- -- 88
2019-04-03 02:00:00 4.5 6 Sur 20 Sur 0 -- -- 89
2019-04-03 01:00:00 4.8 12 Sur 21 Sudeste 0 -- -- 89
2019-04-03 00:00:00 4.8 12 Sur 23 Sudeste 0 -- -- 88
2019-04-02 23:00:00 5.4 14 Sur 22 Sur 0 -- -- 87
2019-04-02 22:00:00 5.7 13 Sudeste 24 Sur 0 -- -- 88
2019-04-02 21:00:00 5.7 13 Sur 26 Sur 0 -- -- 88
2019-04-02 20:00:00 7.1 16 Sur 30 Sudeste 0 -- -- 83
2019-04-02 19:00:00 8.2 11 Sudeste 28 Sudeste 0 -- -- 86
2019-04-02 18:00:00 8.7 12 Sudeste 30 Sur 0 -- -- 84
2019-04-02 17:00:00 10.1 15 Sur 28 Sur 0 -- -- 76
2019-04-02 16:00:00 11 15 Sudeste 29 Sur 0 -- -- 64
2019-04-02 15:00:00 13 8 Sur 30 Sur 0 -- -- 54
2019-04-02 14:00:00 12.1 11 Sudeste 24 Sur 0 -- -- 59
2019-04-02 13:00:00 11.3 11 Sur 24 Sur 0 -- -- 62
2019-04-02 12:00:00 9.9 16 Sur 31 Sudeste 0 -- -- 68
2019-04-02 11:00:00 9.1 14 Sudeste 30 Sudeste 0 -- -- 71
2019-04-02 10:00:00 5.8 2 Sur 10 Este 0 -- -- 84
2019-04-02 09:00:00 0.8 4 Este 12 Este 0 -- -- 95
2019-04-02 08:00:00 -0.5 0 Calma 12 Este 0 -- -- 94
2019-04-02 07:00:00 0.2 0 Calma 10 Este 0 -- -- 95
2019-04-02 06:00:00 0.8 3 Nordeste 14 Este 0 -- -- 93
2019-04-02 05:00:00 2 4 Este 11 Este 0 -- -- 92
2019-04-02 04:00:00 3.2 0 Calma 10 Este 0 -- -- 88
2019-04-02 03:00:00 4.5 6 Este 10 Este 0 -- -- 89
2019-04-02 02:00:00 5.4 3 Este 5 Este 0 -- -- 85
2019-04-02 01:00:00 7.1 0 Calma 12 Sudeste 0 -- -- 80
2019-04-02 00:00:00 7.6 4 Sur 10 Sur 0 -- -- 79
2019-04-01 23:00:00 7.9 5 Sur 16 Sur 0 -- -- 79
2019-04-01 22:00:00 8.4 9 Sudeste 22 Sur 0 -- -- 78
2019-04-01 21:00:00 9.2 9 Sudeste 21 Sur 0 -- -- 76
2019-04-01 20:00:00 10.4 13 Sur 27 Sur 0 -- -- 69
2019-04-01 19:00:00 12.3 16 Sur 28 Sur 0 -- -- 66
2019-04-01 18:00:00 13.7 10 Sur 17 Sudeste 0 -- -- 53
2019-04-01 17:00:00 14.3 7 Sudeste 25 Sur 0 -- -- 50
2019-04-01 16:00:00 13.8 6 Sur 21 Este 0 -- -- 54
2019-04-01 15:00:00 12.6 11 Sudeste 22 Sudeste 0 -- -- 56
2019-04-01 14:00:00 12.5 16 Sudeste 22 Sudeste 0 -- -- 55
2019-04-01 13:00:00 12 4 Oeste 11 Norte 0 -- -- 59
2019-04-01 12:00:00 11.1 5 Sudoeste 12 Sur 0 -- -- 58
2019-04-01 11:00:00 9.2 5 Sudoeste 12 Sur 0 -- -- 67
2019-04-01 10:00:00 5.7 3 Sudoeste 8 Sur 0 -- -- 78
2019-04-01 09:00:00 1.4 8 Este 13 Este 0 -- -- 86
2019-04-01 08:00:00 -0.2 5 Este 12 Este 0 -- -- 92
2019-04-01 07:00:00 0.4 10 Este 14 Este 0 -- -- 88
2019-04-01 06:00:00 1 9 Este 17 Este 0 -- -- 86
2019-04-01 05:00:00 0.8 0 Calma 9 Este 0 -- -- 90
2019-04-01 04:00:00 1.6 7 Este 12 Este 0 -- -- 86
2019-04-01 03:00:00 1 2 Nordeste 9 Este 0 -- -- 83
2019-04-01 02:00:00 1.5 0 Calma 7 Nordeste 0 -- -- 80
2019-04-01 01:00:00 2.9 0 Calma 3 Este 0 -- -- 76
2019-04-01 00:00:00 5.2 0 Calma 10 Sur 0 -- -- 71
2019-03-31 23:00:00 7 3 Sur 13 Sudeste 0 -- -- 66
2019-03-31 22:00:00 9.1 6 Sudeste 17 Sudeste 0 -- -- 60
2019-03-31 21:00:00 11 5 Sudeste 18 Sur 0 -- -- 54
2019-03-31 20:00:00 13.4 8 Sudeste 29 Sudeste 0 -- -- 48
2019-03-31 19:00:00 15 12 Sudeste 31 Sudeste 0 -- -- 42
2019-03-31 18:00:00 16 16 Sur 32 Sudeste 0 -- -- 35
2019-03-31 17:00:00 15 11 Sudeste 23 Sur 0 -- -- 36
2019-03-31 16:00:00 14.5 11 Sur 28 Sudoeste 0 -- -- 39
2019-03-31 15:00:00 16 12 Sudoeste 26 Sur 0 -- -- 37
2019-03-31 14:00:00 15.1 14 Sur 29 Sur 0 -- -- 41
2019-03-31 13:00:00 14 15 Sur 27 Sur 0 -- -- 44
2019-03-31 12:00:00 11.8 13 Sur 23 Sur 0 -- -- 51
2019-03-31 11:00:00 9.1 3 Sudoeste 8 Sur 0 -- -- 61
2019-03-31 10:00:00 5.1 0 Calma 13 Este 0 -- -- 77
2019-03-31 09:00:00 0.7 9 Este 15 Este 0 -- -- 86
2019-03-31 08:00:00 -0.2 0 Calma 11 Este 0 -- -- 88
2019-03-31 07:00:00 1.3 9 Este 15 Este 0 -- -- 87
2019-03-31 06:00:00 2.3 4 Este 12 Este 0 -- -- 85
2019-03-31 05:00:00 3 5 Este 12 Este 0 -- -- 85
2019-03-31 03:00:00 5.4 7 Este 12 Este 0 -- -- 76
2019-03-31 01:00:00 7 0 Calma 7 Sudeste 0 -- -- 73
2019-03-31 00:00:00 8.1 4 Este 10 Sudeste 0 -- -- 74
2019-03-30 23:00:00 8.6 6 Sudeste 15 Sudeste 0 -- -- 73
2019-03-30 22:00:00 9.5 11 Sudeste 19 Sur 0 -- -- 70
2019-03-30 21:00:00 10.2 9 Sudeste 17 Sudeste 0 -- -- 69
2019-03-30 20:00:00 11 6 Sudeste 13 Sudeste 0 -- -- 56
2019-03-30 19:00:00 13.1 5 Sudeste 21 Sur 0 -- -- 59
2019-03-30 18:00:00 14.4 15 Sur 24 Sudeste 0 -- -- 41
2019-03-30 17:00:00 15.3 4 Sudoeste 13 Sur 0 -- -- 36
2019-03-30 16:00:00 15.5 3 Este 19 Sudoeste 0 -- -- 38
2019-03-30 15:00:00 16.9 7 Oeste 21 Oeste 0 -- -- 35
2019-03-30 14:00:00 15.8 9 Oeste 21 Noroeste 0 -- -- 40
2019-03-30 13:00:00 13.8 5 Norte 20 Norte 0 -- -- 46
2019-03-30 12:00:00 13.2 6 Noroeste 17 Oeste 0 -- -- 50
2019-03-30 11:00:00 11.2 11 Oeste 16 Oeste 0 -- -- 51
2019-03-30 10:00:00 9.3 8 Oeste 15 Oeste 0 -- -- 59
2019-03-30 09:00:00 5.6 6 Norte 12 Este 0 -- -- 76
2019-03-30 08:00:00 0 10 Este 14 Este 0 -- -- 81
2019-03-30 07:00:00 -1.1 3 Este 10 Este 0 -- -- 83
2019-03-30 06:00:00 0.3 7 Este 12 Este 0 -- -- 80
2019-03-30 05:00:00 1 7 Este 13 Este 0 -- -- 83
2019-03-30 04:00:00 1.5 5 Este 14 Este 0 -- -- 81
2019-03-30 03:00:00 1.4 7 Este 17 Este 0 -- -- 77
2019-03-30 02:00:00 0.9 3 Este 10 Este 0 -- -- 78
2019-03-30 01:00:00 2.8 3 Este 12 Este 0 -- -- 72
2019-03-30 00:00:00 3.9 8 Este 13 Este 0 -- -- 66
2019-03-29 23:00:00 4.1 2 Este 8 Sur 0 -- -- 66
2019-03-29 22:00:00 5.5 0 Calma 6 Sudeste 0 -- -- 60
2019-03-29 21:00:00 7.9 0 Calma 4 Norte 0 -- -- 52
2019-03-29 20:00:00 12.8 3 Noroeste 15 Oeste 0 -- -- 41
2019-03-29 19:00:00 15.7 8 Oeste 21 Noroeste 0 -- -- 33
2019-03-29 18:00:00 16.8 12 Oeste 24 Noroeste 0 -- -- 31
2019-03-29 17:00:00 17.3 15 Oeste 28 Oeste 0 -- -- 31
2019-03-29 16:00:00 17.3 13 Noroeste 29 Noroeste 0 -- -- 33
2019-03-29 15:00:00 16.9 11 Noroeste 30 Noroeste 0 -- -- 36
2019-03-29 14:00:00 15.8 12 Noroeste 27 Oeste 0 -- -- 38
2019-03-29 13:00:00 14.3 13 Noroeste 25 Oeste 0 -- -- 42
2019-03-29 12:00:00 12.7 14 Noroeste 28 Norte 0 -- -- 42
2019-03-29 11:00:00 11.2 13 Noroeste 26 Norte 0 -- -- 46
2019-03-29 10:00:00 7.4 4 Noroeste 9 Noroeste 0 -- -- 66
2019-03-29 09:00:00 2.9 2 Sudoeste 10 Este 0 -- -- 79
2019-03-29 08:00:00 -1.2 6 Este 13 Este 0 -- -- 82
2019-03-29 07:00:00 -2.4 9 Este 17 Este 0 -- -- 86
2019-03-29 06:00:00 -1.8 5 Este 16 Este 0 -- -- 87
2019-03-29 05:00:00 -1.6 2 Nordeste 9 Este 0 -- -- 89
2019-03-29 04:00:00 -0.6 5 Este 10 Este 0 -- -- 86
2019-03-29 03:00:00 0.1 0 Calma 9 Este 0 -- -- 85
2019-03-29 02:00:00 1.2 2 Nordeste 12 Este 0 -- -- 86
2019-03-29 01:00:00 2.5 3 Este 9 Noroeste 0 -- -- 84
2019-03-29 00:00:00 4.4 4 Norte 14 Sur 0 -- -- 80
2019-03-28 23:00:00 5.8 7 Sur 22 Sur 0 -- -- 77
2019-03-28 22:00:00 6 12 Sudeste 18 Sur 0 -- -- 82
2019-03-28 21:00:00 6.9 9 Sur 17 Sudeste 0 -- -- 79
2019-03-28 20:00:00 8.6 7 Sur 17 Sur 0 -- -- 68
2019-03-28 19:00:00 11.3 10 Sur 28 Sur 0 -- -- 58
2019-03-28 18:00:00 13.2 12 Sur 32 Este 0 -- -- 49
2019-03-28 17:00:00 14.1 13 Sur 31 Sudeste 0 -- -- 49
2019-03-28 16:00:00 14.1 15 Sudeste 35 Sudeste 0 -- -- 49
2019-03-28 15:00:00 14 15 Sudeste 33 Este 0 -- -- 49
2019-03-28 14:00:00 13.4 15 Sudeste 34 Sudeste 0 -- -- 46
2019-03-28 13:00:00 13.2 14 Sudeste 33 Sur 0 -- -- 40
2019-03-28 12:00:00 12 17 Sur 34 Sur 0 -- -- 40
2019-03-28 11:00:00 10.6 21 Sur 34 Sur 0 -- -- 39
2019-03-28 10:00:00 9.3 17 Sur 30 Sudeste 0 -- -- 46
2019-03-28 09:00:00 5.7 13 Sur 24 Sur 0 -- -- 72
2019-03-28 08:00:00 2.3 9 Sudeste 18 Sur 0 -- -- 81
2019-03-28 07:00:00 1.9 13 Sur 19 Sur 0 -- -- 82
2019-03-28 06:00:00 1.1 6 Sudeste 16 Sudoeste 0 -- -- 83
2019-03-28 05:00:00 2.1 11 Sur 24 Sur 0 -- -- 77
2019-03-28 04:00:00 1.8 13 Sur 23 Sur 0 -- -- 72
2019-03-28 03:00:00 2.6 13 Sur 23 Sur 0 -- -- 64
2019-03-28 02:00:00 2.3 16 Sur 25 Sur 0 -- -- 69
2019-03-28 01:00:00 2.6 14 Sur 23 Sudeste 0 -- -- 71
2019-03-28 00:00:00 3.2 13 Sur 21 Sur 0 -- -- 72
2019-03-27 23:00:00 3.6 7 Sudoeste 18 Sudoeste 0 -- -- 73
2019-03-27 22:00:00 4.5 5 Sur 15 Sur 0 -- -- 72
2019-03-27 21:00:00 5.4 7 Sur 17 Sudoeste 0 -- -- 69
2019-03-27 20:00:00 7 6 Sur 16 Sudeste 0 -- -- 63
2019-03-27 19:00:00 10.5 4 Sudeste 21 Sur 0 -- -- 47
2019-03-27 18:00:00 12.7 10 Sur 28 Sur 0 -- -- 38
2019-03-27 17:00:00 13.7 13 Sur 36 Sudeste 0 -- -- 38
2019-03-27 16:00:00 13.8 23 Sudeste 41 Sudeste 0 -- -- 33
2019-03-27 15:00:00 14.2 20 Sudeste 43 Sudeste 0 -- -- 27
2019-03-27 14:00:00 13.4 19 Sur 36 Sudeste 0 -- -- 37
2019-03-27 13:00:00 13.1 18 Sudeste 36 Sur 0 -- -- 30
2019-03-27 12:00:00 12.4 19 Sudeste 40 Sur 0 -- -- 27
2019-03-27 11:00:00 11.2 19 Sur 31 Sudeste 0 -- -- 27
2019-03-27 10:00:00 8.2 9 Sudoeste 12 Sur 0 -- -- 50
2019-03-27 09:00:00 3 0 Calma 16 Este 0 -- -- 69
2019-03-27 08:00:00 -1.6 5 Este 18 Este 0 -- -- 72
2019-03-27 07:00:00 -2.5 8 Este 16 Este 0 -- -- 76
2019-03-27 06:00:00 -2.3 0 Calma 11 Este 0 -- -- 80
2019-03-27 05:00:00 -1.1 5 Este 10 Este 0 -- -- 75
2019-03-27 04:00:00 1.5 4 Nordeste 14 Nordeste 0 -- -- 68
2019-03-27 03:00:00 1.4 2 Sudeste 23 Sudeste 0 -- -- 68
2019-03-27 02:00:00 2.4 10 Sur 18 Sur 0 -- -- 66
2019-03-27 01:00:00 2.5 5 Sudeste 17 Sudeste 0 -- -- 64
2019-03-27 00:00:00 2.5 9 Sudeste 18 Sudeste 0 -- -- 66
2019-03-26 23:00:00 2 5 Sur 14 Sur 0 -- -- 60
2019-03-26 22:00:00 3.9 9 Sudeste 26 Este 0 -- -- 57
2019-03-26 21:00:00 4.5 13 Sudeste 28 Sudeste 0 -- -- 54
2019-03-26 20:00:00 6.1 13 Sudeste 30 Sudeste 0 -- -- 51
2019-03-26 19:00:00 8.7 6 Sur 40 Sudeste 0 -- -- 41
2019-03-26 18:00:00 10.1 21 Sur 44 Sur 0 -- -- 41
2019-03-26 17:00:00 11.6 15 Sudeste 36 Sudeste 0 -- -- 45
2019-03-26 16:00:00 12.8 15 Sudeste 55 Sur 0 -- -- 32
2019-03-26 15:00:00 13 22 Sudeste 49 Sudeste 0 -- -- 21
2019-03-26 14:00:00 12.3 21 Sur 50 Sudeste 0 -- -- 26
2019-03-26 13:00:00 11.4 20 Sudeste 43 Sudeste 0 -- -- 25
2019-03-26 12:00:00 10.1 21 Sur 41 Sudeste 0 -- -- 33
2019-03-26 11:00:00 8.5 19 Sudeste 41 Sudeste 0 -- -- 39
2019-03-26 10:00:00 6.8 16 Sur 32 Sur 0 -- -- 47
2019-03-26 09:00:00 4.9 13 Sudeste 30 Sudeste 0 -- -- 61
2019-03-26 08:00:00 2.8 11 Sur 30 Sur 0 -- -- 77
2019-03-26 07:00:00 3 18 Sur 32 Sur 0 -- -- 77
2019-03-26 06:00:00 3.3 7 Sur 20 Este 0 -- -- 77
2019-03-26 05:00:00 3.9 9 Sur 27 Sudeste 0 -- -- 80
2019-03-26 04:00:00 3.6 7 Sudeste 29 Sudeste 0 -- -- 83
2019-03-26 03:00:00 3.8 13 Sudeste 27 Sudeste 0 -- -- 83
2019-03-26 02:00:00 3.6 8 Sudeste 19 Sudeste 0 -- -- 80
2019-03-26 01:00:00 2.9 9 Sudeste 20 Sur 0 -- -- 77
2019-03-26 00:00:00 2.7 3 Oeste 15 Norte 0 -- -- 80
2019-03-25 23:00:00 2.9 11 Noroeste 20 Sur 0 -- -- 83
2019-03-25 22:00:00 3.5 5 Sur 15 Oeste 0 -- -- 77
2019-03-25 21:00:00 3.8 2 Norte 24 Sudeste 0 -- -- 76
2019-03-25 20:00:00 5.6 8 Sudeste 21 Sudeste 0 -- -- 63
2019-03-25 19:00:00 7.7 9 Sudeste 24 Sudeste 0 -- -- 50
2019-03-25 18:00:00 9.1 13 Sudeste 32 Sur 0 -- -- 57
2019-03-25 17:00:00 10.3 17 Sudeste 41 Sudeste 0 -- -- 54
2019-03-25 16:00:00 10.6 18 Sudeste 39 Sur 0 -- -- 57
2019-03-25 15:00:00 10.5 21 Sudeste 42 Sudeste 0 -- -- 56
2019-03-25 14:00:00 10.6 17 Sudeste 44 Sur 0 -- -- 61
2019-03-25 13:00:00 9.6 19 Sudeste 41 Sur 0 -- -- 62
2019-03-25 12:00:00 8.3 17 Sur 36 Sur 0 -- -- 70
2019-03-25 11:00:00 7.4 18 Sur 39 Sudeste 0 -- -- 76
2019-03-25 10:00:00 7.6 20 Sur 36 Sur 0 -- -- 77
2019-03-25 09:00:00 6.2 15 Sur 26 Sur 0 -- -- 85
2019-03-25 08:00:00 1 3 Nordeste 15 Sudeste 0 -- -- 91
2019-03-25 07:00:00 3.8 5 Sudeste 22 Sur 0 -- -- 88
2019-03-25 06:00:00 4.6 11 Sudeste 29 Sur 0 -- -- 91
2019-03-25 05:00:00 4.3 15 Sudeste 37 Sudeste 0 -- -- 91
2019-03-25 04:00:00 4.2 17 Sudeste 30 Sudeste 0 -- -- 94
2019-03-25 03:00:00 4.5 9 Sur 31 Sudeste 0 -- -- 88
2019-03-25 02:00:00 4.8 13 Sur 22 Sudeste 0 -- -- 89
2019-03-25 01:00:00 5 12 Sur 18 Sudeste 0 -- -- 83
2019-03-25 00:00:00 5.9 11 Sudeste 17 Sudeste 0 -- -- 76
2019-03-24 23:00:00 6.5 6 Sudoeste 19 Sur 0 -- -- 84
2019-03-24 22:00:00 7.5 14 Sur 26 Sur 0 -- -- 87
2019-03-24 21:00:00 8.5 12 Sur 24 Sudeste 0 -- -- 83
2019-03-24 20:00:00 10.1 5 Sudeste 21 Sudeste 0 -- -- 76
2019-03-24 19:00:00 13.2 11 Sur 24 Sur 0 -- -- 66
2019-03-24 18:00:00 15.9 11 Sudeste 31 Sudeste 0 -- -- 54
2019-03-24 17:00:00 17.2 16 Sur 30 Sur 0 -- -- 39
2019-03-24 16:00:00 17.9 13 Sudeste 30 Sudeste 0 -- -- 38
2019-03-24 15:00:00 18.3 14 Sudeste 27 Este 0 -- -- 35
2019-03-24 14:00:00 18.3 12 Sudeste 25 Sudeste 0 -- -- 37
2019-03-24 13:00:00 17.2 13 Sudeste 29 Sudeste 0 -- -- 37
2019-03-24 12:00:00 16.6 9 Sur 17 Sur 0 -- -- 44
2019-03-24 11:00:00 14 7 Sudoeste 10 Sudoeste 0 -- -- 52
2019-03-24 10:00:00 9.6 2 Oeste 5 Sudoeste 0 -- -- 71
2019-03-24 09:00:00 4.5 2 Sur 9 Este 0 -- -- 83
2019-03-24 08:00:00 -0.1 0 Calma 6 Este 0 -- -- 91
2019-03-24 07:00:00 0.2 5 Este 9 Este 0 -- -- 92
2019-03-24 06:00:00 0.6 0 Calma 15 Este 0 -- -- 88
2019-03-24 05:00:00 2.2 10 Este 16 Este 0 -- -- 86
2019-03-24 04:00:00 2.9 8 Este 15 Este 0 -- -- 85
2019-03-24 03:00:00 3.2 4 Este 11 Este 0 -- -- 84
2019-03-24 02:00:00 3.6 0 Calma 13 Este 0 -- -- 83
2019-03-24 01:00:00 4.5 0 Calma 12 Este 0 -- -- 80
2019-03-24 00:00:00 5.6 8 Este 12 Este 0 -- -- 76
2019-03-23 23:00:00 6.2 0 Calma 3 Nordeste 0 -- -- 78
2019-03-23 22:00:00 8.4 2 Nordeste 10 Sudeste 0 -- -- 72
2019-03-23 21:00:00 10.7 9 Sudeste 17 Sudeste 0 -- -- 65
2019-03-23 20:00:00 12.6 9 Sudeste 17 Sudeste 0 -- -- 58
2019-03-23 19:00:00 15.6 7 Sudeste 34 Sudoeste 0 -- -- 50
2019-03-23 18:00:00 18.1 4 Sur 14 Noroeste 0 -- -- 32
2019-03-23 17:00:00 18.7 4 Norte 19 Sudoeste 0 -- -- 32
2019-03-23 16:00:00 18.8 6 Noroeste 23 Noroeste 0 -- -- 34
2019-03-23 15:00:00 18 6 Noroeste 19 Noroeste 0 -- -- 35
2019-03-23 14:00:00 17.8 10 Oeste 21 Noroeste 0 -- -- 36
2019-03-23 13:00:00 16.6 7 Noroeste 16 Sudoeste 0 -- -- 41
2019-03-23 12:00:00 15 8 Sudoeste 15 Oeste 0 -- -- 44
2019-03-23 11:00:00 11.7 5 Sur 10 Sur 0 -- -- 57
2019-03-23 10:00:00 7.1 4 Sur 7 Sur 0 -- -- 71
2019-03-23 09:00:00 2.4 2 Sur 11 Sudeste 0 -- -- 84
2019-03-23 08:00:00 -2.2 0 Calma 4 Este 0 -- -- 93
2019-03-23 07:00:00 -2.7 0 Calma 5 Sudeste 0 -- -- 91
2019-03-23 06:00:00 -1.8 2 Este 9 Este 0 -- -- 91
2019-03-23 05:00:00 -1.7 0 Calma 8 Sudeste 0 -- -- 91
2019-03-23 04:00:00 -0.3 8 Este 15 Sudeste 0 -- -- 86
2019-03-23 03:00:00 0.1 5 Este 14 Este 0 -- -- 87
2019-03-23 02:00:00 0.7 5 Este 15 Este 0 -- -- 84
2019-03-23 01:00:00 1.6 10 Este 15 Este 0 -- -- 81
2019-03-23 00:00:00 2.9 4 Nordeste 14 Este 0 -- -- 79
2019-03-22 23:00:00 4.3 0 Calma 8 Este 0 -- -- 77
2019-03-22 22:00:00 6.9 6 Sudeste 23 Sur 0 -- -- 68
2019-03-22 21:00:00 8 10 Sur 18 Sur 0 -- -- 65
2019-03-22 20:00:00 9.7 11 Sudeste 20 Sur 0 -- -- 57
2019-03-22 19:00:00 12.9 9 Sudeste 25 Sudoeste 0 -- -- 50
2019-03-22 18:00:00 15.8 6 Sudoeste 15 Oeste 0 -- -- 32
2019-03-22 17:00:00 16.2 4 Norte 15 Sudoeste 0 -- -- 33
2019-03-22 16:00:00 15.9 8 Sudoeste 15 Norte 0 -- -- 32
2019-03-22 15:00:00 15.3 4 Noroeste 14 Nordeste 0 -- -- 35
2019-03-22 14:00:00 14.5 5 Norte 17 Oeste 0 -- -- 39
2019-03-22 13:00:00 13.6 5 Norte 20 Sudoeste 0 -- -- 40
2019-03-22 12:00:00 12.1 7 Sudoeste 18 Oeste 0 -- -- 46
2019-03-22 11:00:00 10 8 Sudoeste 17 Oeste 0 -- -- 51
2019-03-22 10:00:00 6.1 6 Noroeste 11 Sudoeste 0 -- -- 64
2019-03-22 09:00:00 0.8 2 Este 13 Este 0 -- -- 87
2019-03-22 08:00:00 -3.1 5 Nordeste 14 Este 0 -- -- 94
2019-03-22 07:00:00 -4.1 4 Este 10 Este 0 -- -- 94
2019-03-22 06:00:00 -3.2 3 Este 10 Este 0 -- -- 90
2019-03-22 05:00:00 -2.7 4 Este 9 Este 0 -- -- 95
2019-03-22 04:00:00 -2.9 3 Este 8 Este 0 -- -- 91
2019-03-22 03:00:00 -2 3 Este 11 Este 0 -- -- 91
2019-03-22 02:00:00 -1.4 7 Este 13 Este 0 -- -- 91
2019-03-22 01:00:00 -0.6 8 Este 13 Sudeste 0 -- -- 89
2019-03-22 00:00:00 0.3 3 Este 11 Este 0 -- -- 88
2019-03-21 23:00:00 1.1 7 Este 10 Este 0 -- -- 91
2019-03-21 22:00:00 2.2 2 Este 12 Sudeste 0 -- -- 87
2019-03-21 21:00:00 3.5 8 Sudeste 13 Sudeste 0 -- -- 82
2019-03-21 20:00:00 6 5 Sudeste 18 Sur 0 -- -- 76
2019-03-21 19:00:00 8.6 12 Sur 26 Sur 0 -- -- 66
2019-03-21 18:00:00 10.3 15 Sudeste 37 Sudeste 0 -- -- 54
2019-03-21 17:00:00 11.3 18 Sur 33 Sudeste 0 -- -- 50
2019-03-21 16:00:00 11.5 14 Sudeste 27 Sur 0 -- -- 53
2019-03-21 15:00:00 10.7 15 Sudeste 34 Sur 0 -- -- 56
2019-03-21 14:00:00 10.1 16 Sudeste 34 Sur 0 -- -- 59
2019-03-21 13:00:00 9.5 17 Sudeste 30 Sudeste 0 -- -- 61
2019-03-21 12:00:00 8.4 15 Sudeste 30 Sur 0 -- -- 64
2019-03-21 11:00:00 7.4 15 Sudeste 29 Sur 0 -- -- 66
2019-03-21 10:00:00 5.6 10 Sur 21 Sur 0 -- -- 68
2019-03-21 09:00:00 1.4 3 Sudeste 16 Este 0 -- -- 87
2019-03-21 08:00:00 -2.2 12 Este 15 Este 0 -- -- 93
2019-03-21 07:00:00 -2.1 7 Este 11 Este 0 -- -- 95
2019-03-21 06:00:00 -1.9 3 Este 9 Este 0 -- -- 93
2019-03-21 05:00:00 -0.9 0 Calma 8 Sudeste 0 -- -- 88
2019-03-21 04:00:00 0.6 2 Sudoeste 13 Sur 0 -- -- 86
2019-03-21 03:00:00 1.3 10 Sur 21 Sur 0 -- -- 82
2019-03-21 02:00:00 0.5 12 Sur 20 Sur 0 -- -- 84
2019-03-21 01:00:00 0.6 10 Sur 18 Sudeste 0 -- -- 84
2019-03-21 00:00:00 0.6 11 Sur 17 Sur 0 -- -- 83
2019-03-20 23:00:00 1.2 9 Sur 20 Sur 0 -- -- 84
2019-03-20 22:00:00 1.9 13 Sur 23 Sudeste 0 -- -- 82
2019-03-20 21:00:00 3 10 Sur 20 Sudeste 0 -- -- 77
2019-03-20 20:00:00 4.4 10 Sur 24 Sudeste 0 -- -- 65
2019-03-20 19:00:00 6.7 9 Sudeste 25 Este 0 -- -- 63
2019-03-20 18:00:00 8.1 17 Sudeste 32 Sudeste 0 -- -- 51
2019-03-20 17:00:00 9.3 16 Sudeste 35 Sudeste 0 -- -- 51
2019-03-20 16:00:00 9.4 16 Sudeste 34 Sudeste 0 -- -- 54
2019-03-20 15:00:00 9 14 Sudeste 32 Sudeste 0 -- -- 60
2019-03-20 14:00:00 8.7 17 Sudeste 37 Este 0 -- -- 61
2019-03-20 13:00:00 7.3 14 Sudeste 36 Sur 0 -- -- 67
2019-03-20 12:00:00 6.3 14 Sudeste 38 Sur 0 -- -- 72
2019-03-20 11:00:00 5.6 13 Sudeste 28 Sur 0 -- -- 79
2019-03-20 10:00:00 4.4 10 Sudeste 22 Sudeste 0 -- -- 83
2019-03-20 09:00:00 3.2 11 Sur 20 Sudeste 0 -- -- 94
2019-03-20 08:00:00 2.9 13 Sur 20 Sur 0 -- -- 95
2019-03-20 07:00:00 2.8 10 Sudeste 21 Sur 0 -- -- 95
2019-03-20 06:00:00 2.8 12 Sur 18 Sur 0 -- -- 95
2019-03-20 05:00:00 2.5 10 Sur 19 Sur 0 -- -- 95
2019-03-20 04:00:00 2.4 10 Sur 19 Sur 0 -- -- 94
2019-03-20 03:00:00 3 11 Sudeste 24 Sur 0 -- -- 96
2019-03-20 02:00:00 3.5 14 Sur 26 Sur 0 -- -- 95
2019-03-20 01:00:00 3.5 8 Sur 22 Sur 0 -- -- 93
2019-03-20 00:00:00 3.8 6 Sur 18 Sur 0 -- -- 90
2019-03-19 23:00:00 3.5 7 Sur 13 Sudeste 0 -- -- 93
2019-03-19 22:00:00 3.8 9 Sur 18 Sur 0 -- -- 91
2019-03-19 21:00:00 3.8 6 Sudeste 26 Sudeste 0 -- -- 91
2019-03-19 20:00:00 3.9 15 Sur 32 Sur 0 -- -- 91
2019-03-19 19:00:00 5 15 Sudeste 28 Sur 0 -- -- 87
2019-03-19 18:00:00 7.1 14 Sudeste 32 Sudeste 0 -- -- 73
2019-03-19 17:00:00 8 21 Sur 37 Sudeste 0 -- -- 74
2019-03-19 16:00:00 9.2 18 Sudeste 37 Sur 0 -- -- 69
2019-03-19 15:00:00 9.4 19 Sur 40 Sudeste 0 -- -- 70
2019-03-19 14:00:00 9.3 16 Sudeste 32 Este 0 -- -- 68
2019-03-19 13:00:00 9 20 Sudeste 36 Sudeste 0 -- -- 68
2019-03-19 12:00:00 7.6 15 Sudeste 31 Sudeste 0 -- -- 78
2019-03-19 11:00:00 7.1 10 Sudeste 19 Norte 0 -- -- 76
2019-03-19 10:00:00 5.1 3 Sudoeste 10 Noroeste 0 -- -- 84
2019-03-19 09:00:00 4.4 5 Noroeste 7 Noroeste 0 -- -- 84
2019-03-19 08:00:00 2.9 3 Nordeste 5 Sudeste 0 -- -- 88
2019-03-19 07:00:00 2.8 0 Calma 8 Sudeste 0 -- -- 87
2019-03-19 06:00:00 3.1 7 Sudeste 14 Sur 0 -- -- 85
2019-03-19 05:00:00 3.3 6 Sur 11 Sudeste 0 -- -- 82
2019-03-19 04:00:00 2.9 4 Sudoeste 12 Sur 0 -- -- 84
2019-03-19 03:00:00 1.9 3 Nordeste 6 Sudeste 0 -- -- 81
2019-03-19 02:00:00 3.6 3 Nordeste 14 Nordeste 0 -- -- 74
2019-03-19 01:00:00 3.8 3 Este 12 Sudeste 0 -- -- 74
2019-03-19 00:00:00 3.9 6 Sur 17 Sur 0 -- -- 76